Time;durP1;ratioP1;P1;durP2;ratioP2;P2;SDS_P1;SDS_P2;PMS_P1;PMS_P2;Temp;Humidity;BMP_temperature;BMP_pressure;BME280_temperature;BME280_humidity;BME280_pressure;Samples;Min_cycle;Max_cycle;Signal;HPM_P1;HPM_P2
2021/01/18 00:00:08;;;;;;;8.23;5.10;;;;;;;3.56;95.81;96965.94;5011883;28;20265;-58
2021/01/18 00:02:33;;;;;;;6.27;5.33;;;;;;;3.49;96.00;96977.16;5011024;28;20182;-61
2021/01/18 00:04:59;;;;;;;8.70;4.80;;;;;;;3.45;96.13;96968.88;5012180;28;20847;-60
2021/01/18 00:07:24;;;;;;;5.90;5.33;;;;;;;3.46;96.49;96967.88;5011986;28;20661;-58
2021/01/18 00:09:49;;;;;;;6.87;5.17;;;;;;;3.41;97.07;96965.00;5010246;28;20177;-61
2021/01/18 00:12:15;;;;;;;6.30;5.40;;;;;;;3.61;96.36;96966.22;5011592;28;20207;-60
2021/01/18 00:14:40;;;;;;;10.57;5.30;;;;;;;3.48;96.77;96978.13;5011653;28;20244;-58
2021/01/18 00:17:07;;;;;;;6.10;5.30;;;;;;;3.26;97.72;96969.25;5012126;28;20171;-58
2021/01/18 00:19:32;;;;;;;9.43;5.90;;;;;;;3.56;96.95;96965.09;5011390;28;20293;-59
2021/01/18 00:21:57;;;;;;;7.63;5.30;;;;;;;3.52;96.44;96961.22;5012140;28;20511;-58
2021/01/18 00:24:23;;;;;;;7.00;5.50;;;;;;;3.45;96.57;96965.47;5013368;28;20229;-58
2021/01/18 00:26:48;;;;;;;9.00;5.70;;;;;;;3.55;97.10;96969.50;5013727;28;20546;-58
2021/01/18 00:29:14;;;;;;;6.63;5.87;;;;;;;3.66;95.98;96968.34;5003596;28;20175;-58
2021/01/18 00:31:44;;;;;;;8.77;5.93;;;;;;;3.69;95.72;96966.22;5001686;28;20235;-61
2021/01/18 00:34:10;;;;;;;6.20;5.17;;;;;;;3.58;95.93;96965.75;5014798;28;20931;-63
2021/01/18 00:36:35;;;;;;;7.43;5.67;;;;;;;3.59;96.18;96963.00;5015350;28;20453;-65
2021/01/18 00:39:00;;;;;;;5.73;4.93;;;;;;;3.56;96.09;96960.75;5015459;28;20252;-61
2021/01/18 00:41:26;;;;;;;6.40;4.80;;;;;;;3.57;96.15;96957.16;5014121;28;20648;-56
2021/01/18 00:43:53;;;;;;;6.27;4.80;;;;;;;3.42;96.23;96958.00;5014634;28;20204;-57
2021/01/18 00:46:18;;;;;;;7.00;5.50;;;;;;;3.20;97.53;96956.13;5005434;28;20187;-61
2021/01/18 00:48:43;;;;;;;4.93;4.47;;;;;;;3.44;96.72;96962.06;5004088;28;20476;-57
2021/01/18 00:51:09;;;;;;;4.50;4.10;;;;;;;3.30;97.33;96954.16;5014974;28;20161;-57
2021/01/18 00:53:34;;;;;;;5.30;4.67;;;;;;;3.33;96.92;96957.22;5014415;28;20280;-61
2021/01/18 00:56:00;;;;;;;7.67;5.40;;;;;;;3.36;96.70;96961.25;5015051;28;20624;-57
2021/01/18 00:58:26;;;;;;;7.97;4.73;;;;;;;3.22;97.00;96954.16;5014769;28;20182;-60
2021/01/18 01:00:51;;;;;;;4.43;4.03;;;;;;;3.48;96.51;96942.56;5014673;28;20463;-61
2021/01/18 01:03:17;;;;;;;8.40;4.30;;;;;;;3.47;95.62;96953.94;5006899;28;20183;-57
2021/01/18 01:05:42;;;;;;;5.90;4.47;;;;;;;3.46;95.56;96947.13;5013165;28;20173;-57
2021/01/18 01:08:07;;;;;;;5.90;5.00;;;;;;;3.44;96.05;96954.28;5014355;28;20172;-61
2021/01/18 01:10:34;;;;;;;6.10;4.30;;;;;;;3.48;95.72;96959.97;5014034;28;20226;-61
2021/01/18 01:13:03;;;;;;;6.43;4.23;;;;;;;3.41;96.09;96957.19;5014478;28;20175;-58
2021/01/18 01:15:29;;;;;;;6.57;5.07;;;;;;;3.61;95.21;96957.63;5014384;28;20524;-57
2021/01/18 01:17:55;;;;;;;5.40;4.70;;;;;;;3.75;94.02;96957.72;5014545;28;20914;-57
2021/01/18 01:20:21;;;;;;;8.83;4.63;;;;;;;3.50;95.71;96957.97;5010985;28;20462;-61
2021/01/18 01:22:47;;;;;;;5.90;4.33;;;;;;;3.64;95.29;96965.09;5013540;28;20286;-57
2021/01/18 01:25:15;;;;;;;4.80;4.13;;;;;;;3.39;96.38;96958.34;5014003;28;20462;-60
2021/01/18 01:27:42;;;;;;;7.97;4.83;;;;;;;3.46;96.38;96956.72;5014197;28;20928;-61
2021/01/18 01:30:12;;;;;;;5.10;4.00;;;;;;;3.50;96.43;96958.78;5014620;28;20400;-61
2021/01/18 01:32:43;;;;;;;4.77;3.93;;;;;;;3.63;95.48;96956.50;5014034;28;20417;-58
2021/01/18 01:35:10;;;;;;;3.77;3.47;;;;;;;3.20;97.13;96956.94;4997071;28;20444;-61
2021/01/18 01:37:37;;;;;;;5.00;3.70;;;;;;;3.31;97.30;96956.59;5010343;28;20508;-57
2021/01/18 01:40:07;;;;;;;5.23;3.27;;;;;;;3.44;96.76;96963.84;5013209;28;20461;-61
2021/01/18 01:42:33;;;;;;;4.37;4.00;;;;;;;3.69;95.37;96965.41;5013647;28;20414;-58
2021/01/18 01:44:58;;;;;;;4.30;3.43;;;;;;;3.65;95.01;96971.91;5013842;28;20443;-57
2021/01/18 01:47:32;;;;;;;4.43;4.03;;;;;;;3.53;95.57;96971.47;5014007;28;20174;-61
2021/01/18 01:50:00;;;;;;;4.73;3.70;;;;;;;3.61;95.70;96978.41;5013165;28;20280;-61
2021/01/18 01:52:29;;;;;;;5.37;3.77;;;;;;;3.74;94.74;96978.69;5013712;28;20413;-60
2021/01/18 01:55:00;;;;;;;5.30;4.23;;;;;;;3.73;95.04;96977.88;4998136;28;20444;-61
2021/01/18 01:57:28;;;;;;;4.47;3.60;;;;;;;3.80;94.55;96978.84;5013832;28;20722;-57
2021/01/18 01:59:56;;;;;;;5.27;4.67;;;;;;;3.72;93.92;96983.25;5013774;28;20442;-61
2021/01/18 02:02:22;;;;;;;5.20;3.87;;;;;;;3.45;95.89;96984.47;5012155;28;20408;-58
2021/01/18 02:04:47;;;;;;;4.40;4.00;;;;;;;3.30;96.94;96982.72;5012835;28;20535;-61
2021/01/18 02:07:28;;;;;;;3.80;3.37;;;;;;;3.51;96.46;96986.41;5013253;28;20173;-61
2021/01/18 02:09:55;;;;;;;4.60;3.83;;;;;;;3.54;95.83;96988.66;5013644;28;20190;-57
2021/01/18 02:12:21;;;;;;;4.70;4.00;;;;;;;3.36;96.15;96982.03;5013839;28;20821;-57
2021/01/18 02:14:57;;;;;;;4.47;4.00;;;;;;;3.33;96.55;96980.59;5011563;28;20437;-57
2021/01/18 02:17:36;;;;;;;4.70;4.10;;;;;;;3.63;95.43;96987.66;5012568;28;20430;-57
2021/01/18 02:20:11;;;;;;;3.77;3.40;;;;;;;3.75;94.64;96990.72;5013636;28;20478;-62
2021/01/18 02:23:05;;;;;;;4.33;3.90;;;;;;;4.00;93.83;96995.63;5016766;28;20510;-60
2021/01/18 02:25:38;;;;;;;3.90;3.60;;;;;;;3.81;94.53;96987.44;4964252;28;20432;-57
2021/01/18 02:28:43;;;;;;;4.50;4.07;;;;;;;3.87;93.26;96995.38;5013898;28;20505;-60
2021/01/18 02:31:33;;;;;;;4.00;3.60;;;;;;;3.55;94.77;96999.88;5017501;28;20428;-58
2021/01/18 02:34:11;;;;;;;4.73;4.13;;;;;;;3.62;94.87;96999.03;5016531;28;20832;-61
2021/01/18 02:37:17;;;;;;;6.07;3.97;;;;;;;3.75;94.20;97012.28;5017420;28;20408;-61
2021/01/18 02:40:11;;;;;;;4.40;4.00;;;;;;;3.55;95.15;97013.66;5015635;28;20489;-61
2021/01/18 02:43:01;;;;;;;4.27;3.87;;;;;;;3.80;94.27;97011.81;5016328;28;20428;-57
2021/01/18 02:45:27;;;;;;;3.80;3.40;;;;;;;3.75;94.16;97014.09;5017134;28;20448;-57
2021/01/18 02:47:54;;;;;;;5.60;4.63;;;;;;;3.80;93.62;97017.81;5017308;28;20410;-57
2021/01/18 02:50:20;;;;;;;4.33;3.93;;;;;;;3.76;93.98;97016.53;5017084;28;20443;-60
2021/01/18 02:52:46;;;;;;;5.07;4.57;;;;;;;3.71;93.77;97018.81;5016764;28;20446;-61
2021/01/18 02:55:13;;;;;;;5.27;4.50;;;;;;;3.59;94.45;97017.53;5016298;28;20446;-62
2021/01/18 02:57:43;;;;;;;5.97;5.37;;;;;;;3.62;94.61;97006.84;5016593;28;20179;-57
2021/01/18 03:00:14;;;;;;;6.73;6.03;;;;;;;3.78;93.87;97006.78;5017236;28;20452;-57
2021/01/18 03:02:53;;;;;;;7.50;6.00;;;;;;;3.81;93.62;97003.03;5016422;28;20422;-61
2021/01/18 03:05:34;;;;;;;7.93;6.17;;;;;;;3.87;93.46;97003.19;5017111;28;20463;-61
2021/01/18 03:08:05;;;;;;;5.97;5.37;;;;;;;3.63;94.04;97008.44;5016813;28;20409;-60
2021/01/18 03:10:45;;;;;;;7.30;5.80;;;;;;;3.48;94.85;97017.09;5015278;28;20424;-57
2021/01/18 03:13:18;;;;;;;6.33;5.73;;;;;;;3.57;95.02;97008.31;5016565;28;20436;-61
2021/01/18 03:15:47;;;;;;;6.20;5.07;;;;;;;3.39;95.46;97016.28;5015668;28;20414;-58
2021/01/18 03:18:18;;;;;;;7.37;6.60;;;;;;;3.26;96.18;97012.56;5016585;28;20414;-60
2021/01/18 03:20:44;;;;;;;7.80;6.20;;;;;;;3.29;96.77;97002.66;5015295;28;20449;-61
2021/01/18 03:23:10;;;;;;;8.73;5.47;;;;;;;3.23;97.10;97011.09;5016313;28;20446;-57
2021/01/18 03:25:50;;;;;;;7.33;5.67;;;;;;;3.26;96.47;97005.59;5015269;28;20460;-58
2021/01/18 03:28:15;;;;;;;7.97;6.43;;;;;;;3.29;96.37;97004.44;5016167;28;20230;-57
2021/01/18 03:30:41;;;;;;;8.27;5.60;;;;;;;3.15;97.69;97021.50;5016189;28;20426;-61
2021/01/18 03:33:06;;;;;;;8.70;6.30;;;;;;;3.31;96.64;97012.88;5015925;28;20172;-61
2021/01/18 03:35:32;;;;;;;9.83;6.77;;;;;;;3.49;95.99;97009.13;5009987;28;20201;-57
2021/01/18 03:37:58;;;;;;;7.90;6.00;;;;;;;3.17;96.83;97021.34;4997959;28;20167;-57
2021/01/18 03:40:25;;;;;;;8.17;6.57;;;;;;;3.17;97.01;97008.38;5016075;28;20238;-61
2021/01/18 03:43:05;;;;;;;8.67;6.77;;;;;;;3.19;97.01;97011.63;5016002;28;20402;-58
2021/01/18 03:45:33;;;;;;;7.80;6.33;;;;;;;3.12;97.10;97014.03;5006750;28;20452;-57
2021/01/18 03:47:59;;;;;;;8.17;6.50;;;;;;;3.08;97.87;97002.34;4996726;28;20412;-58
2021/01/18 03:50:24;;;;;;;7.20;5.97;;;;;;;2.88;97.95;96998.50;4996805;28;20412;-61
2021/01/18 03:52:52;;;;;;;6.60;6.00;;;;;;;2.96;98.07;97003.66;5004044;28;20175;-61
2021/01/18 03:55:18;;;;;;;7.60;6.67;;;;;;;2.90;98.38;97006.88;5015913;28;20285;-57
2021/01/18 03:57:51;;;;;;;9.27;6.00;;;;;;;2.90;98.09;97007.72;5016033;28;20448;-57
2021/01/18 04:00:20;;;;;;;10.23;6.70;;;;;;;2.98;97.59;96997.34;5014156;28;20547;-58
2021/01/18 04:02:45;;;;;;;8.30;6.60;;;;;;;2.95;97.83;96999.47;5015345;28;20404;-58
2021/01/18 04:05:12;;;;;;;10.73;6.90;;;;;;;2.82;97.61;96996.53;5007157;28;20495;-58
2021/01/18 04:07:38;;;;;;;9.30;7.47;;;;;;;2.89;98.20;96998.31;4996330;28;20171;-57
2021/01/18 04:10:04;;;;;;;8.53;5.90;;;;;;;2.69;98.08;96999.59;4996286;28;20410;-61
2021/01/18 04:12:30;;;;;;;11.47;7.83;;;;;;;2.56;99.16;97003.63;5002019;28;20580;-60
2021/01/18 04:14:55;;;;;;;10.70;6.90;;;;;;;2.40;100.00;96996.63;5006761;28;20533;-61
2021/01/18 04:17:21;;;;;;;11.40;7.70;;;;;;;2.64;99.18;96994.09;4996045;28;20171;-57
2021/01/18 04:19:46;;;;;;;10.97;7.90;;;;;;;2.52;98.89;97003.13;4995927;28;20217;-61
2021/01/18 04:22:12;;;;;;;10.00;7.23;;;;;;;2.59;98.57;97000.72;5013858;28;20587;-57
2021/01/18 04:24:37;;;;;;;11.90;6.63;;;;;;;2.57;97.92;97007.84;5014345;28;20209;-58
2021/01/18 04:27:05;;;;;;;11.83;8.33;;;;;;;2.43;98.61;97008.50;5006311;28;20216;-61
2021/01/18 04:29:31;;;;;;;11.60;7.57;;;;;;;2.45;98.90;97011.69;5015396;28;20321;-57
2021/01/18 04:31:56;;;;;;;10.43;6.80;;;;;;;2.29;99.09;97016.84;5015377;28;20495;-61
2021/01/18 04:34:22;;;;;;;9.47;6.47;;;;;;;2.29;99.61;97020.28;5014167;28;20190;-58
2021/01/18 04:36:48;;;;;;;11.83;7.47;;;;;;;2.33;99.66;97019.00;5015464;28;20175;-57
2021/01/18 04:39:14;;;;;;;11.07;7.60;;;;;;;2.48;98.48;97024.38;5015275;28;20696;-58
2021/01/18 04:41:42;;;;;;;10.17;8.00;;;;;;;2.56;98.44;97022.59;5014959;28;20492;-58
2021/01/18 04:44:09;;;;;;;10.43;7.60;;;;;;;2.64;97.75;97025.22;5013728;28;20192;-58
2021/01/18 04:46:39;;;;;;;11.27;7.50;;;;;;;2.58;97.04;97025.84;5015218;28;20405;-58
2021/01/18 04:49:05;;;;;;;11.47;7.60;;;;;;;2.67;96.50;97019.69;5014619;28;20784;-62
2021/01/18 04:51:40;;;;;;;14.90;6.97;;;;;;;2.66;96.93;97019.88;5015096;28;20410;-61
2021/01/18 04:54:11;;;;;;;9.20;6.20;;;;;;;2.61;96.65;97020.31;5014556;28;21006;-58
2021/01/18 04:57:13;;;;;;;9.50;6.60;;;;;;;2.62;96.81;97028.94;5014054;28;20405;-58
2021/01/18 04:59:42;;;;;;;11.63;7.83;;;;;;;2.83;96.01;97024.91;4995270;28;20442;-57
2021/01/18 05:02:19;;;;;;;9.47;6.60;;;;;;;2.96;94.77;97027.00;4999854;28;20514;-58
2021/01/18 05:04:49;;;;;;;11.73;7.40;;;;;;;2.91;94.30;97031.88;5014314;28;20837;-61
2021/01/18 05:07:33;;;;;;;14.40;8.40;;;;;;;2.88;94.26;97033.00;5014844;28;20906;-61
2021/01/18 05:10:07;;;;;;;11.03;7.57;;;;;;;3.08;93.41;97034.31;5013867;28;20423;-61
2021/01/18 05:12:36;;;;;;;10.80;6.67;;;;;;;3.02;93.23;97036.75;5014293;28;20416;-61
2021/01/18 05:15:09;;;;;;;8.37;6.20;;;;;;;2.94;93.14;97029.78;5014414;28;20430;-61
2021/01/18 05:17:48;;;;;;;11.03;7.30;;;;;;;2.87;93.93;97026.22;5012781;28;20424;-61
2021/01/18 05:20:15;;;;;;;7.83;6.30;;;;;;;3.03;92.15;97040.97;5014416;28;20465;-58
2021/01/18 05:22:44;;;;;;;8.83;6.10;;;;;;;3.03;91.71;97036.59;5013534;28;20456;-61
2021/01/18 05:25:10;;;;;;;6.77;5.60;;;;;;;3.06;91.42;97040.66;5014352;28;20448;-62
2021/01/18 05:27:58;;;;;;;9.00;5.90;;;;;;;2.87;92.15;97046.97;5014285;28;20855;-58
2021/01/18 05:30:25;;;;;;;8.77;5.63;;;;;;;2.98;91.72;97044.06;5013553;28;20441;-58
2021/01/18 05:33:04;;;;;;;9.10;5.83;;;;;;;2.99;91.42;97050.84;5012699;28;20426;-61
2021/01/18 05:35:30;;;;;;;13.77;6.30;;;;;;;2.92;91.42;97044.69;5014207;28;20483;-61
2021/01/18 05:38:14;;;;;;;12.87;5.60;;;;;;;2.88;91.92;97050.38;4998654;28;20422;-61
2021/01/18 05:40:51;;;;;;;10.43;5.93;;;;;;;3.13;90.93;97055.41;5012803;28;20562;-57
2021/01/18 05:43:18;;;;;;;10.13;6.00;;;;;;;3.25;89.84;97055.88;4994371;28;20837;-61
2021/01/18 05:45:48;;;;;;;10.53;6.43;;;;;;;3.33;88.90;97066.28;5012491;28;20436;-57
2021/01/18 05:48:25;;;;;;;10.93;6.23;;;;;;;3.48;88.63;97058.66;5013943;28;20415;-58
2021/01/18 05:50:59;;;;;;;10.67;6.47;;;;;;;3.51;88.44;97060.91;5013950;28;20417;-58
2021/01/18 05:53:33;;;;;;;11.50;5.77;;;;;;;3.42;88.28;97067.09;5013321;28;20413;-62
2021/01/18 05:56:18;;;;;;;9.40;6.90;;;;;;;3.52;88.30;97065.13;5010706;28;20465;-58
2021/01/18 05:58:45;;;;;;;23.73;7.20;;;;;;;3.59;87.91;97068.66;4999100;28;20898;-59
2021/01/18 06:01:11;;;;;;;8.43;6.40;;;;;;;3.62;87.90;97071.78;4995166;28;20461;-57
2021/01/18 06:03:37;;;;;;;9.70;6.63;;;;;;;3.69;87.62;97077.13;4998197;28;20499;-61
2021/01/18 06:06:02;;;;;;;11.87;6.53;;;;;;;3.75;87.47;97079.84;5013817;28;20515;-58
2021/01/18 06:08:28;;;;;;;16.63;6.80;;;;;;;3.87;87.30;97078.53;5013776;28;20437;-57
2021/01/18 06:10:55;;;;;;;10.83;6.30;;;;;;;3.87;86.87;97082.91;5013795;28;20618;-58
2021/01/18 06:13:25;;;;;;;9.07;5.90;;;;;;;3.89;86.85;97083.56;5013313;28;20405;-58
2021/01/18 06:16:02;;;;;;;10.03;6.70;;;;;;;3.87;86.83;97082.91;5009268;28;20425;-61
2021/01/18 06:18:32;;;;;;;10.63;8.10;;;;;;;3.73;87.50;97078.41;5013094;28;20427;-62
2021/01/18 06:20:59;;;;;;;16.67;7.53;;;;;;;3.66;88.12;97080.84;5013770;28;20452;-62
2021/01/18 06:23:24;;;;;;;9.33;6.53;;;;;;;3.60;87.37;97084.13;5013097;28;20905;-61
2021/01/18 06:25:52;;;;;;;10.30;6.50;;;;;;;3.60;87.89;97091.09;5012839;28;20460;-61
2021/01/18 06:28:29;;;;;;;11.27;6.80;;;;;;;3.55;87.91;97094.16;5013523;28;20816;-57
2021/01/18 06:31:11;;;;;;;12.00;6.73;;;;;;;3.51;87.38;97095.50;5006273;28;20430;-57
2021/01/18 06:33:48;;;;;;;8.60;5.97;;;;;;;3.33;88.14;97096.63;5013176;28;20797;-62
2021/01/18 06:36:16;;;;;;;11.97;7.60;;;;;;;3.22;88.23;97107.31;5013659;28;20416;-58
2021/01/18 06:39:06;;;;;;;9.97;7.13;;;;;;;3.25;88.31;97113.00;5012418;28;20903;-61
2021/01/18 06:41:34;;;;;;;8.43;6.60;;;;;;;3.29;88.05;97108.31;5006024;28;20553;-58
2021/01/18 06:44:00;;;;;;;16.80;11.00;;;;;;;3.22;87.82;97110.75;5012879;28;20439;-58
2021/01/18 06:46:34;;;;;;;20.00;12.30;;;;;;;3.26;87.86;97109.47;5013492;28;20416;-58
2021/01/18 06:49:01;;;;;;;16.37;7.90;;;;;;;3.08;88.25;97108.75;5013543;28;20735;-57
2021/01/18 06:51:29;;;;;;;10.63;7.40;;;;;;;2.93;89.58;97107.78;5013051;28;20869;-61
2021/01/18 06:53:56;;;;;;;30.63;17.23;;;;;;;2.85;89.86;97120.72;4998012;28;20499;-61
2021/01/18 06:56:21;;;;;;;31.80;14.77;;;;;;;2.94;89.58;97109.41;5012174;28;20468;-62
2021/01/18 06:59:08;;;;;;;21.40;11.60;;;;;;;2.79;89.97;97116.97;5013357;28;20415;-58
2021/01/18 07:01:39;;;;;;;13.10;7.87;;;;;;;2.77;89.83;97111.13;5013199;28;20187;-58
2021/01/18 07:04:09;;;;;;;18.70;10.63;;;;;;;2.61;90.82;97121.47;5012160;28;20546;-58
2021/01/18 07:06:37;;;;;;;9.77;7.23;;;;;;;2.55;91.61;97118.72;5013417;28;20948;-61
2021/01/18 07:09:08;;;;;;;13.13;7.20;;;;;;;2.57;91.67;97122.78;5016074;28;20426;-58
2021/01/18 07:11:34;;;;;;;10.73;5.73;;;;;;;2.33;92.13;97121.84;5016925;28;20407;-62
2021/01/18 07:14:04;;;;;;;8.73;6.40;;;;;;;2.17;93.71;97130.38;5016163;28;20427;-57
2021/01/18 07:16:29;;;;;;;8.17;6.90;;;;;;;2.45;92.80;97124.00;5016020;28;20424;-61
2021/01/18 07:18:56;;;;;;;6.83;5.77;;;;;;;2.35;93.08;97132.88;5016725;28;20413;-57
2021/01/18 07:21:26;;;;;;;9.43;6.70;;;;;;;2.55;92.24;97132.50;5016582;28;20196;-57
2021/01/18 07:23:57;;;;;;;7.60;5.07;;;;;;;2.72;91.38;97136.75;5015226;28;20497;-62
2021/01/18 07:26:28;;;;;;;6.33;5.20;;;;;;;2.87;90.63;97139.53;5015551;28;20416;-57
2021/01/18 07:28:56;;;;;;;9.03;5.63;;;;;;;3.04;89.96;97143.81;5016745;28;20412;-61
2021/01/18 07:31:22;;;;;;;7.67;4.93;;;;;;;2.85;91.29;97150.09;5016076;28;20429;-57
2021/01/18 07:33:47;;;;;;;7.77;5.20;;;;;;;3.11;89.72;97150.00;5015399;28;20445;-62
2021/01/18 07:36:26;;;;;;;9.93;5.50;;;;;;;3.08;89.46;97151.09;5016330;28;20491;-57
2021/01/18 07:38:51;;;;;;;7.43;5.37;;;;;;;3.19;89.28;97157.78;5016262;28;20257;-58
2021/01/18 07:41:20;;;;;;;10.93;5.00;;;;;;;3.20;89.59;97164.59;5016173;28;20556;-58
2021/01/18 07:43:48;;;;;;;7.53;4.80;;;;;;;2.99;90.20;97165.03;5015777;28;20200;-57
2021/01/18 07:46:26;;;;;;;6.13;4.37;;;;;;;2.84;90.79;97169.22;5015243;28;20918;-61
2021/01/18 07:48:51;;;;;;;6.47;4.73;;;;;;;3.01;90.88;97168.28;5002268;28;20443;-61
2021/01/18 07:51:21;;;;;;;8.13;4.63;;;;;;;3.25;90.47;97170.13;5016178;28;20408;-57
2021/01/18 07:53:47;;;;;;;11.63;4.40;;;;;;;3.13;89.65;97169.59;5015611;28;20243;-61
2021/01/18 07:56:24;;;;;;;9.00;5.57;;;;;;;3.21;89.65;97165.44;5010615;28;20896;-57
2021/01/18 07:59:01;;;;;;;8.43;4.87;;;;;;;3.26;89.40;97171.75;4996599;28;20273;-57
2021/01/18 08:01:28;;;;;;;7.40;4.60;;;;;;;3.26;90.01;97178.72;4996366;28;20456;-61
2021/01/18 08:03:53;;;;;;;5.00;4.13;;;;;;;3.35;89.90;97181.19;4995733;28;20838;-57
2021/01/18 08:06:19;;;;;;;12.57;4.73;;;;;;;3.31;89.82;97184.25;4996255;28;20466;-61
2021/01/18 08:08:46;;;;;;;4.60;4.20;;;;;;;3.29;89.60;97183.59;5005686;28;20186;-62
2021/01/18 08:11:11;;;;;;;7.17;4.37;;;;;;;3.38;89.48;97185.22;5014925;28;20443;-61
2021/01/18 08:13:49;;;;;;;7.77;5.03;;;;;;;3.37;89.96;97183.63;5015244;28;20519;-57
2021/01/18 08:16:22;;;;;;;9.00;5.90;;;;;;;3.56;88.73;97175.50;5015607;28;20178;-58
2021/01/18 08:19:01;;;;;;;8.43;6.17;;;;;;;3.27;88.75;97178.56;5013133;28;20924;-61
2021/01/18 08:21:33;;;;;;;12.80;6.13;;;;;;;3.10;90.61;97180.31;5015461;28;20457;-57
2021/01/18 08:24:15;;;;;;;19.73;13.00;;;;;;;3.39;89.17;97179.09;5014153;28;20796;-61
2021/01/18 08:27:00;;;;;;;19.40;9.47;;;;;;;3.27;89.13;97181.16;5013609;28;20422;-61
2021/01/18 08:29:41;;;;;;;12.43;8.63;;;;;;;3.18;89.97;97184.72;5014952;28;20912;-60
2021/01/18 08:32:25;;;;;;;22.17;12.73;;;;;;;3.18;89.30;97189.91;5015149;28;20475;-54
2021/01/18 08:34:52;;;;;;;21.13;13.10;;;;;;;3.32;88.61;97186.69;5013388;28;20840;-56
2021/01/18 08:37:18;;;;;;;10.50;6.67;;;;;;;3.43;89.32;97191.56;5013674;28;20427;-56
2021/01/18 08:39:57;;;;;;;7.87;5.63;;;;;;;3.51;89.62;97183.81;5015107;28;20456;-56
2021/01/18 08:42:31;;;;;;;7.00;5.53;;;;;;;3.43;89.49;97194.16;5015034;28;20420;-58
2021/01/18 08:45:01;;;;;;;8.57;5.67;;;;;;;3.41;89.94;97184.91;5014683;28;20464;-56
2021/01/18 08:47:58;;;;;;;13.97;8.90;;;;;;;3.55;88.97;97181.69;5014896;28;20911;-60
2021/01/18 08:50:53;;;;;;;12.40;5.40;;;;;;;3.74;88.72;97181.34;5001900;28;20429;-56
2021/01/18 08:53:26;;;;;;;13.10;7.50;;;;;;;3.80;88.09;97185.91;5009171;28;20438;-60
2021/01/18 08:56:13;;;;;;;16.87;8.67;;;;;;;3.60;88.66;97187.22;5014121;28;20548;-60
2021/01/18 08:58:39;;;;;;;10.93;6.87;;;;;;;3.55;89.13;97194.69;5000113;28;20429;-59
2021/01/18 09:01:09;;;;;;;11.50;7.40;;;;;;;3.61;89.12;97194.00;5013910;28;20866;-56
2021/01/18 09:03:34;;;;;;;9.53;5.30;;;;;;;3.95;87.18;97205.09;5014058;28;20497;-56
2021/01/18 09:06:00;;;;;;;13.50;7.90;;;;;;;3.75;88.30;97206.38;5014209;28;20431;-60
2021/01/18 09:08:27;;;;;;;7.20;5.63;;;;;;;3.56;89.11;97193.69;5014804;28;20263;-61
2021/01/18 09:11:04;;;;;;;9.40;6.43;;;;;;;3.57;89.27;97196.13;5013114;28;20183;-60
2021/01/18 09:13:32;;;;;;;7.40;5.20;;;;;;;3.40;90.70;97194.50;5001916;28;20425;-61
2021/01/18 09:16:00;;;;;;;7.53;5.90;;;;;;;3.49;91.06;97201.31;4999124;28;20513;-62
2021/01/18 09:18:26;;;;;;;9.63;6.87;;;;;;;3.55;90.98;97200.66;5010390;28;21070;-61
2021/01/18 09:20:54;;;;;;;10.33;6.67;;;;;;;3.76;90.43;97201.03;5010729;28;20821;-58
2021/01/18 09:23:20;;;;;;;6.20;4.80;;;;;;;3.71;90.13;97203.28;5009969;28;20921;-60
2021/01/18 09:25:46;;;;;;;9.00;5.10;;;;;;;3.96;89.80;97204.91;4990885;28;20407;-60
2021/01/18 09:28:14;;;;;;;11.40;7.17;;;;;;;3.90;90.28;97204.72;4990370;28;20415;-60
2021/01/18 09:30:42;;;;;;;9.00;6.67;;;;;;;4.07;90.12;97204.59;4996744;28;20987;-59
2021/01/18 09:33:10;;;;;;;8.40;6.10;;;;;;;3.59;92.11;97212.38;5009681;28;20431;-58
2021/01/18 09:35:43;;;;;;;10.20;7.40;;;;;;;3.58;92.40;97217.72;5010346;28;20848;-59
2021/01/18 09:38:10;;;;;;;7.00;5.73;;;;;;;3.43;93.42;97219.31;5010295;28;20475;-60
2021/01/18 09:40:41;;;;;;;9.00;6.23;;;;;;;3.40;93.40;97223.06;5009867;28;20466;-58
2021/01/18 09:43:08;;;;;;;7.37;6.67;;;;;;;3.53;93.64;97212.22;5009587;28;20507;-61
2021/01/18 09:45:34;;;;;;;10.63;5.87;;;;;;;3.48;92.67;97219.66;5008761;28;20453;-57
2021/01/18 09:48:09;;;;;;;8.73;5.63;;;;;;;3.65;92.99;97219.53;5012746;28;20961;-57
2021/01/18 09:50:36;;;;;;;7.93;5.87;;;;;;;3.73;92.74;97210.94;5013029;28;20402;-57
2021/01/18 09:53:09;;;;;;;5.00;4.33;;;;;;;3.66;92.00;97215.94;5013107;28;20767;-57
2021/01/18 09:55:49;;;;;;;6.83;6.00;;;;;;;3.33;93.44;97221.25;5012332;28;20787;-61
2021/01/18 09:58:20;;;;;;;7.93;5.93;;;;;;;3.47;94.48;97212.84;5013031;28;21027;-61
2021/01/18 10:00:48;;;;;;;6.53;4.30;;;;;;;3.51;93.13;97214.97;5010709;28;20496;-62
2021/01/18 10:03:32;;;;;;;6.00;4.70;;;;;;;3.27;94.48;97208.91;5012077;28;20427;-57
2021/01/18 10:06:04;;;;;;;4.73;4.20;;;;;;;3.35;94.67;97207.16;5000004;28;20426;-62
2021/01/18 10:08:32;;;;;;;6.43;4.33;;;;;;;3.50;93.53;97208.13;4993616;28;20419;-57
2021/01/18 10:10:58;;;;;;;5.53;4.50;;;;;;;3.45;93.18;97205.22;4994155;28;20439;-61
2021/01/18 10:13:25;;;;;;;5.37;4.87;;;;;;;3.67;92.92;97207.19;4995112;28;20888;-60
2021/01/18 10:15:52;;;;;;;7.93;4.90;;;;;;;3.57;93.75;97190.13;5013111;28;20479;-61
2021/01/18 10:18:31;;;;;;;5.80;5.17;;;;;;;3.59;93.49;97195.94;5012477;28;20926;-56
2021/01/18 10:20:59;;;;;;;6.10;4.20;;;;;;;3.70;94.09;97191.25;5011278;28;20460;-60
2021/01/18 10:23:28;;;;;;;6.30;5.53;;;;;;;3.69;93.14;97187.06;5008846;28;20414;-61
2021/01/18 10:25:53;;;;;;;7.17;4.30;;;;;;;3.51;93.82;97186.41;5013584;28;20429;-57
2021/01/18 10:28:20;;;;;;;6.10;4.83;;;;;;;3.69;93.58;97176.66;5012991;28;20905;-61
2021/01/18 10:30:46;;;;;;;6.37;4.20;;;;;;;3.79;92.57;97172.09;5013466;28;20201;-62
2021/01/18 10:33:17;;;;;;;6.30;4.43;;;;;;;3.86;92.81;97173.06;5013131;28;20924;-57
2021/01/18 10:35:43;;;;;;;5.10;4.20;;;;;;;3.82;92.64;97176.16;5013865;28;20443;-56
2021/01/18 10:38:22;;;;;;;7.20;4.30;;;;;;;3.82;92.15;97170.97;4996094;28;20478;-61
2021/01/18 10:41:08;;;;;;;6.63;4.53;;;;;;;3.88;93.08;97163.31;5013438;28;20455;-57
2021/01/18 10:43:34;;;;;;;4.33;3.93;;;;;;;3.95;92.13;97163.50;5014675;28;20442;-60
2021/01/18 10:46:00;;;;;;;4.80;4.30;;;;;;;4.03;91.79;97166.06;5007494;28;20438;-61
2021/01/18 10:48:31;;;;;;;4.73;4.00;;;;;;;4.32;90.87;97153.31;5016822;28;20417;-61
2021/01/18 10:51:02;;;;;;;4.73;4.00;;;;;;;4.22;90.70;97151.91;5017433;28;20536;-62
2021/01/18 10:53:32;;;;;;;5.83;4.90;;;;;;;4.39;89.81;97159.47;5015861;28;20428;-61
2021/01/18 10:56:10;;;;;;;8.00;4.10;;;;;;;4.25;89.84;97167.16;5017068;28;20415;-57
2021/01/18 10:58:36;;;;;;;5.53;4.73;;;;;;;4.51;90.16;97167.75;5016642;28;20431;-61
2021/01/18 11:01:09;;;;;;;8.80;4.57;;;;;;;4.41;89.50;97167.13;5017134;28;20968;-57
2021/01/18 11:03:36;;;;;;;6.40;4.50;;;;;;;4.29;90.16;97165.84;5016650;28;20670;-61
2021/01/18 11:06:12;;;;;;;4.17;3.87;;;;;;;4.52;89.41;97169.34;5015771;28;20415;-57
2021/01/18 11:08:37;;;;;;;5.17;4.37;;;;;;;4.29;90.13;97168.44;5012856;28;20853;-57
2021/01/18 11:11:15;;;;;;;5.20;4.57;;;;;;;4.31;89.83;97169.09;5016469;28;20481;-60
2021/01/18 11:13:41;;;;;;;12.37;4.20;;;;;;;4.34;90.65;97168.75;5015587;28;20570;-60
2021/01/18 11:16:14;;;;;;;6.87;3.70;;;;;;;4.49;89.50;97167.09;5015874;28;20425;-57
2021/01/18 11:18:39;;;;;;;5.13;4.20;;;;;;;4.75;88.89;97163.25;5016352;28;20183;-60
2021/01/18 11:21:05;;;;;;;4.97;4.47;;;;;;;4.57;89.04;97161.84;5016521;28;20454;-60
2021/01/18 11:23:31;;;;;;;10.43;5.07;;;;;;;4.47;88.57;97156.03;5016038;28;20196;-60
2021/01/18 11:25:56;;;;;;;7.37;5.00;;;;;;;4.33;88.47;97156.75;5016456;28;20188;-60
2021/01/18 11:28:21;;;;;;;8.17;5.80;;;;;;;4.31;90.06;97154.31;5008807;28;20262;-57
2021/01/18 11:30:47;;;;;;;5.63;4.60;;;;;;;4.34;90.08;97148.78;4999112;28;20228;-60
2021/01/18 11:33:12;;;;;;;6.90;5.10;;;;;;;4.38;89.83;97144.03;5003695;28;20197;-57
2021/01/18 11:35:39;;;;;;;7.70;4.83;;;;;;;4.31;89.15;97145.69;5016040;28;20203;-57
2021/01/18 11:38:05;;;;;;;4.47;4.00;;;;;;;4.08;90.03;97142.97;5016452;28;20170;-57
2021/01/18 11:40:30;;;;;;;5.27;3.50;;;;;;;4.23;88.92;97149.13;5016309;28;20854;-60
2021/01/18 11:42:59;;;;;;;5.37;4.30;;;;;;;4.19;89.11;97146.03;5015627;28;20203;-56
2021/01/18 11:45:25;;;;;;;3.97;3.23;;;;;;;4.00;89.37;97141.19;5015615;28;20690;-60
2021/01/18 11:47:51;;;;;;;4.97;4.47;;;;;;;4.02;89.79;97139.25;5014399;28;20833;-59
2021/01/18 11:50:16;;;;;;;7.70;4.50;;;;;;;4.04;90.30;97147.69;5016058;28;20461;-60
2021/01/18 11:52:46;;;;;;;4.83;4.07;;;;;;;3.84;91.13;97140.44;5009812;28;21004;-60